sensor_id;sensor_type;location;lat;lon;timestamp;pressure;altitude;pressure_sealevel;temperature;humidity
56330;BME280;42236;48.058;10.632;2024-01-10T00:01:46;95258.72;;;-9.01;93.75
56330;BME280;42236;48.058;10.632;2024-01-10T00:04:32;95255.09;;;-8.93;93.47
56330;BME280;42236;48.058;10.632;2024-01-10T00:07:17;95261.50;;;-8.89;93.34
56330;BME280;42236;48.058;10.632;2024-01-10T00:10:04;95255.06;;;-8.87;93.75
56330;BME280;42236;48.058;10.632;2024-01-10T00:12:50;95257.06;;;-8.82;94.09
56330;BME280;42236;48.058;10.632;2024-01-10T00:15:35;95248.00;;;-8.73;94.42
56330;BME280;42236;48.058;10.632;2024-01-10T00:18:21;95245.19;;;-8.65;95.15
56330;BME280;42236;48.058;10.632;2024-01-10T00:21:07;95248.59;;;-8.57;95.24
56330;BME280;42236;48.058;10.632;2024-01-10T00:23:53;95247.31;;;-8.48;95.78
56330;BME280;42236;48.058;10.632;2024-01-10T00:26:38;95255.34;;;-8.43;95.85
56330;BME280;42236;48.058;10.632;2024-01-10T00:29:24;95240.03;;;-8.33;95.95
56330;BME280;42236;48.058;10.632;2024-01-10T00:32:10;95244.22;;;-8.25;94.78
56330;BME280;42236;48.058;10.632;2024-01-10T00:34:55;95233.91;;;-8.20;94.26
56330;BME280;42236;48.058;10.632;2024-01-10T00:37:41;95238.53;;;-8.16;94.17
56330;BME280;42236;48.058;10.632;2024-01-10T00:40:27;95241.13;;;-8.09;94.22
56330;BME280;42236;48.058;10.632;2024-01-10T00:43:12;95240.69;;;-8.06;93.79
56330;BME280;42236;48.058;10.632;2024-01-10T00:45:58;95241.06;;;-8.02;94.24
56330;BME280;42236;48.058;10.632;2024-01-10T00:48:44;95243.28;;;-7.99;95.29
56330;BME280;42236;48.058;10.632;2024-01-10T00:51:29;95249.69;;;-7.95;95.73
56330;BME280;42236;48.058;10.632;2024-01-10T00:54:15;95257.16;;;-7.92;95.60
56330;BME280;42236;48.058;10.632;2024-01-10T00:57:01;95257.31;;;-7.87;95.66
56330;BME280;42236;48.058;10.632;2024-01-10T00:59:46;95254.06;;;-7.82;96.20
56330;BME280;42236;48.058;10.632;2024-01-10T01:02:32;95256.84;;;-7.77;96.54
56330;BME280;42236;48.058;10.632;2024-01-10T01:05:17;95257.63;;;-7.70;96.56
56330;BME280;42236;48.058;10.632;2024-01-10T01:08:03;95262.84;;;-7.63;97.45
56330;BME280;42236;48.058;10.632;2024-01-10T01:10:49;95265.38;;;-7.57;97.32
56330;BME280;42236;48.058;10.632;2024-01-10T01:13:35;95268.16;;;-7.52;98.00
56330;BME280;42236;48.058;10.632;2024-01-10T01:16:20;95266.94;;;-7.49;97.39
56330;BME280;42236;48.058;10.632;2024-01-10T01:19:06;95268.56;;;-7.48;96.95
56330;BME280;42236;48.058;10.632;2024-01-10T01:21:51;95268.94;;;-7.44;97.24
56330;BME280;42236;48.058;10.632;2024-01-10T01:24:37;95268.53;;;-7.41;97.78
56330;BME280;42236;48.058;10.632;2024-01-10T01:27:23;95264.44;;;-7.37;99.18
56330;BME280;42236;48.058;10.632;2024-01-10T01:30:09;95271.66;;;-7.33;97.68
56330;BME280;42236;48.058;10.632;2024-01-10T01:32:56;95264.19;;;-7.29;97.32
56330;BME280;42236;48.058;10.632;2024-01-10T01:35:42;95271.84;;;-7.27;96.98
56330;BME280;42236;48.058;10.632;2024-01-10T01:38:28;95267.78;;;-7.23;96.75
56330;BME280;42236;48.058;10.632;2024-01-10T01:41:13;95268.38;;;-7.21;97.51
56330;BME280;42236;48.058;10.632;2024-01-10T01:44:00;95255.84;;;-7.19;97.21
56330;BME280;42236;48.058;10.632;2024-01-10T01:46:47;95260.66;;;-7.16;97.39
56330;BME280;42236;48.058;10.632;2024-01-10T01:49:33;95250.56;;;-7.13;97.27
56330;BME280;42236;48.058;10.632;2024-01-10T01:52:19;95256.19;;;-7.09;97.08
56330;BME280;42236;48.058;10.632;2024-01-10T01:55:06;95243.22;;;-7.04;97.76
56330;BME280;42236;48.058;10.632;2024-01-10T01:57:53;95244.41;;;-7.00;98.38
56330;BME280;42236;48.058;10.632;2024-01-10T02:00:39;95227.44;;;-6.97;98.24
56330;BME280;42236;48.058;10.632;2024-01-10T02:03:25;95239.31;;;-6.95;98.72
56330;BME280;42236;48.058;10.632;2024-01-10T02:06:12;95236.69;;;-6.95;99.23
56330;BME280;42236;48.058;10.632;2024-01-10T02:08:58;95240.50;;;-6.91;98.18
56330;BME280;42236;48.058;10.632;2024-01-10T02:11:43;95240.50;;;-6.91;97.59
56330;BME280;42236;48.058;10.632;2024-01-10T02:14:29;95243.91;;;-6.90;97.81
56330;BME280;42236;48.058;10.632;2024-01-10T02:17:15;95238.66;;;-6.90;98.21
56330;BME280;42236;48.058;10.632;2024-01-10T02:20:14;95246.28;;;-6.89;98.60
56330;BME280;42236;48.058;10.632;2024-01-10T02:23:03;95243.47;;;-6.87;98.28
56330;BME280;42236;48.058;10.632;2024-01-10T02:25:49;95245.88;;;-6.85;98.72
56330;BME280;42236;48.058;10.632;2024-01-10T02:28:35;95251.50;;;-6.82;98.40
56330;BME280;42236;48.058;10.632;2024-01-10T02:31:20;95258.34;;;-6.81;98.41
56330;BME280;42236;48.058;10.632;2024-01-10T02:34:06;95254.34;;;-6.83;98.82
56330;BME280;42236;48.058;10.632;2024-01-10T02:36:51;95252.53;;;-6.83;99.05
56330;BME280;42236;48.058;10.632;2024-01-10T02:39:37;95257.63;;;-6.88;98.88
56330;BME280;42236;48.058;10.632;2024-01-10T02:42:23;95253.16;;;-6.88;98.74
56330;BME280;42236;48.058;10.632;2024-01-10T02:45:09;95255.19;;;-6.90;98.98
56330;BME280;42236;48.058;10.632;2024-01-10T02:47:55;95250.34;;;-6.86;99.25
56330;BME280;42236;48.058;10.632;2024-01-10T02:50:41;95254.75;;;-6.87;98.89
56330;BME280;42236;48.058;10.632;2024-01-10T02:53:26;95256.78;;;-6.89;98.99
56330;BME280;42236;48.058;10.632;2024-01-10T02:56:12;95247.13;;;-6.88;99.17
56330;BME280;42236;48.058;10.632;2024-01-10T02:58:57;95246.28;;;-6.89;99.26
56330;BME280;42236;48.058;10.632;2024-01-10T03:01:43;95245.28;;;-6.88;99.10
56330;BME280;42236;48.058;10.632;2024-01-10T03:04:29;95247.91;;;-6.88;98.99
56330;BME280;42236;48.058;10.632;2024-01-10T03:07:15;95242.28;;;-6.91;98.93
56330;BME280;42236;48.058;10.632;2024-01-10T03:10:00;95242.28;;;-6.91;99.15
56330;BME280;42236;48.058;10.632;2024-01-10T03:12:46;95240.63;;;-6.85;99.10
56330;BME280;42236;48.058;10.632;2024-01-10T03:15:32;95239.84;;;-6.86;99.07
56330;BME280;42236;48.058;10.632;2024-01-10T03:18:17;95246.47;;;-6.83;99.25
56330;BME280;42236;48.058;10.632;2024-01-10T03:21:04;95240.19;;;-6.82;99.02
56330;BME280;42236;48.058;10.632;2024-01-10T03:23:50;95243.47;;;-6.87;99.01
56330;BME280;42236;48.058;10.632;2024-01-10T03:26:36;95235.59;;;-6.87;99.28
56330;BME280;42236;48.058;10.632;2024-01-10T03:29:21;95229.56;;;-6.88;99.15
56330;BME280;42236;48.058;10.632;2024-01-10T03:32:07;95230.16;;;-6.85;99.53
56330;BME280;42236;48.058;10.632;2024-01-10T03:34:52;95234.16;;;-6.83;99.19
56330;BME280;42236;48.058;10.632;2024-01-10T03:37:38;95229.72;;;-6.82;99.61
56330;BME280;42236;48.058;10.632;2024-01-10T03:40:24;95239.59;;;-6.84;99.37
56330;BME280;42236;48.058;10.632;2024-01-10T03:43:09;95224.91;;;-6.85;99.58
56330;BME280;42236;48.058;10.632;2024-01-10T03:45:55;95229.72;;;-6.82;99.57
56330;BME280;42236;48.058;10.632;2024-01-10T03:48:41;95232.91;;;-6.80;99.66
56330;BME280;42236;48.058;10.632;2024-01-10T03:51:33;95230.88;;;-6.78;99.31
56330;BME280;42236;48.058;10.632;2024-01-10T03:54:18;95232.63;;;-6.72;99.58
56330;BME280;42236;48.058;10.632;2024-01-10T03:57:04;95235.84;;;-6.70;99.53
56330;BME280;42236;48.058;10.632;2024-01-10T03:59:50;95235.41;;;-6.67;99.13
56330;BME280;42236;48.058;10.632;2024-01-10T04:02:36;95240.22;;;-6.64;98.95
56330;BME280;42236;48.058;10.632;2024-01-10T04:05:23;95229.50;;;-6.62;99.20
56330;BME280;42236;48.058;10.632;2024-01-10T04:08:10;95231.47;;;-6.58;99.58
56330;BME280;42236;48.058;10.632;2024-01-10T04:10:56;95231.25;;;-6.56;99.29
56330;BME280;42236;48.058;10.632;2024-01-10T04:13:44;95231.03;;;-6.55;99.34
56330;BME280;42236;48.058;10.632;2024-01-10T04:16:30;95239.50;;;-6.53;99.13
56330;BME280;42236;48.058;10.632;2024-01-10T04:19:16;95231.03;;;-6.55;99.14
56330;BME280;42236;48.058;10.632;2024-01-10T04:22:02;95225.38;;;-6.52;99.53
56330;BME280;42236;48.058;10.632;2024-01-10T04:24:47;95224.13;;;-6.49;99.16
56330;BME280;42236;48.058;10.632;2024-01-10T04:27:33;95235.41;;;-6.49;99.87
56330;BME280;42236;48.058;10.632;2024-01-10T04:30:19;95231.75;;;-6.48;99.69
56330;BME280;42236;48.058;10.632;2024-01-10T04:33:04;95225.06;;;-6.44;99.68
56330;BME280;42236;48.058;10.632;2024-01-10T04:35:50;95228.28;;;-6.41;99.58
56330;BME280;42236;48.058;10.632;2024-01-10T04:38:36;95226.44;;;-6.41;99.68
56330;BME280;42236;48.058;10.632;2024-01-10T04:41:21;95227.63;;;-6.37;99.99
56330;BME280;42236;48.058;10.632;2024-01-10T04:44:07;95223.53;;;-6.33;99.93
56330;BME280;42236;48.058;10.632;2024-01-10T04:46:53;95223.31;;;-6.31;99.62
56330;BME280;42236;48.058;10.632;2024-01-10T04:49:38;95224.47;;;-6.27;99.46
56330;BME280;42236;48.058;10.632;2024-01-10T04:52:24;95225.06;;;-6.25;99.74
56330;BME280;42236;48.058;10.632;2024-01-10T04:55:10;95226.66;;;-6.24;99.35
56330;BME280;42236;48.058;10.632;2024-01-10T04:57:56;95230.66;;;-6.22;99.43
56330;BME280;42236;48.058;10.632;2024-01-10T05:00:42;95223.03;;;-6.23;98.82
56330;BME280;42236;48.058;10.632;2024-01-10T05:03:27;95223.03;;;-6.23;98.91
56330;BME280;42236;48.058;10.632;2024-01-10T05:06:13;95214.91;;;-6.22;99.16
56330;BME280;42236;48.058;10.632;2024-01-10T05:08:59;95225.19;;;-6.20;99.23
56330;BME280;42236;48.058;10.632;2024-01-10T05:11:44;95228.41;;;-6.18;99.07
56330;BME280;42236;48.058;10.632;2024-01-10T05:14:33;95230.25;;;-6.18;99.26
56330;BME280;42236;48.058;10.632;2024-01-10T05:17:19;95230.91;;;-6.23;98.93
56330;BME280;42236;48.058;10.632;2024-01-10T05:20:05;95228.81;;;-6.21;99.67
56330;BME280;42236;48.058;10.632;2024-01-10T05:22:51;95229.41;;;-6.19;99.04
56330;BME280;42236;48.058;10.632;2024-01-10T05:25:37;95240.94;;;-6.20;98.94
56330;BME280;42236;48.058;10.632;2024-01-10T05:28:23;95236.34;;;-6.25;99.34
56330;BME280;42236;48.058;10.632;2024-01-10T05:31:09;95243.66;;;-6.27;100.00
56330;BME280;42236;48.058;10.632;2024-01-10T05:33:54;95243.56;;;-6.20;100.00
56330;BME280;42236;48.058;10.632;2024-01-10T05:36:40;95250.22;;;-6.17;99.94
56330;BME280;42236;48.058;10.632;2024-01-10T05:39:26;95254.22;;;-6.15;99.36
56330;BME280;42236;48.058;10.632;2024-01-10T05:42:11;95250.56;;;-6.14;99.20
56330;BME280;42236;48.058;10.632;2024-01-10T05:44:57;95255.00;;;-6.14;99.03
56330;BME280;42236;48.058;10.632;2024-01-10T05:47:43;95257.44;;;-6.13;99.03
56330;BME280;42236;48.058;10.632;2024-01-10T05:50:28;95252.19;;;-6.13;99.23
56330;BME280;42236;48.058;10.632;2024-01-10T05:53:14;95253.75;;;-6.12;98.86
56330;BME280;42236;48.058;10.632;2024-01-10T05:56:02;95249.53;;;-6.13;98.95
56330;BME280;42236;48.058;10.632;2024-01-10T05:58:48;95249.53;;;-6.13;99.19
56330;BME280;42236;48.058;10.632;2024-01-10T06:01:33;95247.13;;;-6.14;99.09
56330;BME280;42236;48.058;10.632;2024-01-10T06:04:19;95243.13;;;-6.17;98.94
56330;BME280;42236;48.058;10.632;2024-01-10T06:07:05;95237.88;;;-6.17;99.02
56330;BME280;42236;48.058;10.632;2024-01-10T06:09:50;95239.31;;;-6.21;98.75
56330;BME280;42236;48.058;10.632;2024-01-10T06:12:36;95245.63;;;-6.22;98.77
56330;BME280;42236;48.058;10.632;2024-01-10T06:15:23;95240.38;;;-6.22;98.73
56330;BME280;42236;48.058;10.632;2024-01-10T06:18:09;95249.28;;;-6.23;98.77
56330;BME280;42236;48.058;10.632;2024-01-10T06:20:54;95250.88;;;-6.22;98.79
56330;BME280;42236;48.058;10.632;2024-01-10T06:23:40;95252.91;;;-6.24;98.68
56330;BME280;42236;48.058;10.632;2024-01-10T06:26:26;95247.31;;;-6.28;98.54
56330;BME280;42236;48.058;10.632;2024-01-10T06:29:11;95251.72;;;-6.28;99.04
56330;BME280;42236;48.058;10.632;2024-01-10T06:31:57;95254.59;;;-6.30;98.69
56330;BME280;42236;48.058;10.632;2024-01-10T06:34:43;95252.63;;;-6.34;98.79
56330;BME280;42236;48.058;10.632;2024-01-10T06:37:29;95260.28;;;-6.33;98.92
56330;BME280;42236;48.058;10.632;2024-01-10T06:40:14;95261.66;;;-6.30;98.97
56330;BME280;42236;48.058;10.632;2024-01-10T06:43:00;95254.16;;;-6.27;98.89
56330;BME280;42236;48.058;10.632;2024-01-10T06:45:46;95259.41;;;-6.27;98.54
56330;BME280;42236;48.058;10.632;2024-01-10T06:48:33;95260.19;;;-6.26;98.71
56330;BME280;42236;48.058;10.632;2024-01-10T06:51:19;95266.03;;;-6.24;99.00
56330;BME280;42236;48.058;10.632;2024-01-10T06:54:04;95265.88;;;-6.29;98.81
56330;BME280;42236;48.058;10.632;2024-01-10T06:56:50;95270.19;;;-6.35;99.15
56330;BME280;42236;48.058;10.632;2024-01-10T06:59:36;95271.50;;;-6.44;99.63
56330;BME280;42236;48.058;10.632;2024-01-10T07:02:23;95270.56;;;-6.50;100.00
56330;BME280;42236;48.058;10.632;2024-01-10T07:05:09;95268.16;;;-6.51;100.00
56330;BME280;42236;48.058;10.632;2024-01-10T07:07:55;95280.63;;;-6.47;100.00
56330;BME280;42236;48.058;10.632;2024-01-10T07:10:40;95274.94;;;-6.44;99.65
56330;BME280;42236;48.058;10.632;2024-01-10T07:13:26;95280.19;;;-6.44;99.60
56330;BME280;42236;48.058;10.632;2024-01-10T07:16:12;95275.50;;;-6.41;99.72
56330;BME280;42236;48.058;10.632;2024-01-10T07:19:00;95278.72;;;-6.39;99.55
56330;BME280;42236;48.058;10.632;2024-01-10T07:21:47;95278.72;;;-6.39;99.50
56330;BME280;42236;48.058;10.632;2024-01-10T07:24:32;95280.91;;;-6.36;99.39
56330;BME280;42236;48.058;10.632;2024-01-10T07:27:19;95280.47;;;-6.33;99.65
56330;BME280;42236;48.058;10.632;2024-01-10T07:30:09;95280.03;;;-6.30;99.45
56330;BME280;42236;48.058;10.632;2024-01-10T07:32:58;95270.34;;;-6.30;99.46
56330;BME280;42236;48.058;10.632;2024-01-10T07:35:44;95278.44;;;-6.31;99.42
56330;BME280;42236;48.058;10.632;2024-01-10T07:38:31;95277.19;;;-6.29;99.34
56330;BME280;42236;48.058;10.632;2024-01-10T07:41:16;95278.81;;;-6.28;99.16
56330;BME280;42236;48.058;10.632;2024-01-10T07:44:02;95276.38;;;-6.29;99.12
56330;BME280;42236;48.058;10.632;2024-01-10T07:46:48;95284.41;;;-6.24;99.39
56330;BME280;42236;48.058;10.632;2024-01-10T07:49:36;95290.84;;;-6.20;99.03
56330;BME280;42236;48.058;10.632;2024-01-10T07:52:23;95283.09;;;-6.15;99.03
56330;BME280;42236;48.058;10.632;2024-01-10T07:55:08;95281.41;;;-6.09;98.63
56330;BME280;42236;48.058;10.632;2024-01-10T07:57:54;95282.22;;;-6.09;98.46
56330;BME280;42236;48.058;10.632;2024-01-10T08:00:40;95285.22;;;-6.05;98.46
56330;BME280;42236;48.058;10.632;2024-01-10T08:03:25;95291.19;;;-5.98;98.71
56330;BME280;42236;48.058;10.632;2024-01-10T08:06:11;95296.91;;;-5.89;98.36
56330;BME280;42236;48.058;10.632;2024-01-10T08:08:57;95299.22;;;-5.81;97.86
56330;BME280;42236;48.058;10.632;2024-01-10T08:11:43;95290.47;;;-5.75;97.51
56330;BME280;42236;48.058;10.632;2024-01-10T08:14:28;95300.88;;;-5.68;97.36
56330;BME280;42236;48.058;10.632;2024-01-10T08:17:14;95311.09;;;-5.60;97.37
56330;BME280;42236;48.058;10.632;2024-01-10T08:20:00;95304.47;;;-5.63;97.22
56330;BME280;42236;48.058;10.632;2024-01-10T08:22:47;95311.63;;;-5.70;96.79
56330;BME280;42236;48.058;10.632;2024-01-10T08:25:33;95316.03;;;-5.82;96.98
56330;BME280;42236;48.058;10.632;2024-01-10T08:28:18;95317.34;;;-5.91;97.06
56330;BME280;42236;48.058;10.632;2024-01-10T08:31:04;95311.59;;;-6.00;97.03
56330;BME280;42236;48.058;10.632;2024-01-10T08:33:50;95317.25;;;-5.96;97.68
56330;BME280;42236;48.058;10.632;2024-01-10T08:36:35;95319.38;;;-5.93;97.36
56330;BME280;42236;48.058;10.632;2024-01-10T08:39:21;95319.53;;;-5.88;97.33
56330;BME280;42236;48.058;10.632;2024-01-10T08:42:07;95321.13;;;-5.87;97.50
56330;BME280;42236;48.058;10.632;2024-01-10T08:44:55;95330.47;;;-5.91;97.46
56330;BME280;42236;48.058;10.632;2024-01-10T08:47:41;95340.09;;;-5.85;97.32
56330;BME280;42236;48.058;10.632;2024-01-10T08:50:27;95345.28;;;-5.79;96.94
56330;BME280;42236;48.058;10.632;2024-01-10T08:53:12;95341.19;;;-5.74;97.07
56330;BME280;42236;48.058;10.632;2024-01-10T08:55:58;95345.22;;;-5.72;97.19
56330;BME280;42236;48.058;10.632;2024-01-10T08:58:43;95340.28;;;-5.68;96.46
56330;BME280;42236;48.058;10.632;2024-01-10T09:01:29;95340.69;;;-5.65;96.63
56330;BME280;42236;48.058;10.632;2024-01-10T09:04:15;95342.25;;;-5.64;96.82
56330;BME280;42236;48.058;10.632;2024-01-10T09:07:00;95344.53;;;-5.67;96.92
56330;BME280;42236;48.058;10.632;2024-01-10T09:09:46;95355.28;;;-5.69;96.82
56330;BME280;42236;48.058;10.632;2024-01-10T09:12:32;95356.84;;;-5.68;97.41
56330;BME280;42236;48.058;10.632;2024-01-10T09:15:18;95350.59;;;-5.67;97.31
56330;BME280;42236;48.058;10.632;2024-01-10T09:18:04;95355.84;;;-5.67;97.19
56330;BME280;42236;48.058;10.632;2024-01-10T09:20:49;95357.44;;;-5.66;97.33
56330;BME280;42236;48.058;10.632;2024-01-10T09:23:35;95370.16;;;-5.63;97.03
56330;BME280;42236;48.058;10.632;2024-01-10T09:26:22;95373.72;;;-5.57;97.54
56330;BME280;42236;48.058;10.632;2024-01-10T09:29:08;95368.03;;;-5.54;97.50
56330;BME280;42236;48.058;10.632;2024-01-10T09:31:54;95373.56;;;-5.44;97.52
56330;BME280;42236;48.058;10.632;2024-01-10T09:34:40;95372.81;;;-5.32;97.54
56330;BME280;42236;48.058;10.632;2024-01-10T09:37:25;95379.72;;;-5.20;97.18
56330;BME280;42236;48.058;10.632;2024-01-10T09:40:14;95376.69;;;-5.05;97.25
56330;BME280;42236;48.058;10.632;2024-01-10T09:43:00;95383.00;;;-4.94;96.93
56330;BME280;42236;48.058;10.632;2024-01-10T09:45:48;95381.66;;;-4.85;95.28
56330;BME280;42236;48.058;10.632;2024-01-10T09:48:33;95387.84;;;-4.79;95.83
56330;BME280;42236;48.058;10.632;2024-01-10T09:51:19;95386.41;;;-4.63;96.29
56330;BME280;42236;48.058;10.632;2024-01-10T09:54:05;95386.19;;;-4.50;95.78
56330;BME280;42236;48.058;10.632;2024-01-10T09:56:51;95388.84;;;-4.38;95.83
56330;BME280;42236;48.058;10.632;2024-01-10T09:59:36;95398.47;;;-4.20;95.96
56330;BME280;42236;48.058;10.632;2024-01-10T10:02:23;95390.56;;;-3.97;95.53
56330;BME280;42236;48.058;10.632;2024-01-10T10:05:13;95390.78;;;-3.87;94.57
56330;BME280;42236;48.058;10.632;2024-01-10T10:08:00;95393.16;;;-3.73;94.22
56330;BME280;42236;48.058;10.632;2024-01-10T10:10:48;95386.50;;;-3.64;94.37
56330;BME280;42236;48.058;10.632;2024-01-10T10:13:34;95386.03;;;-3.61;93.40
56330;BME280;42236;48.058;10.632;2024-01-10T10:16:26;95383.75;;;-3.57;93.99
56330;BME280;42236;48.058;10.632;2024-01-10T10:19:12;95377.75;;;-3.53;94.07
56330;BME280;42236;48.058;10.632;2024-01-10T10:22:07;95377.97;;;-3.42;93.14
56330;BME280;42236;48.058;10.632;2024-01-10T10:24:54;95386.09;;;-3.32;93.42
56330;BME280;42236;48.058;10.632;2024-01-10T10:27:39;95383.16;;;-3.19;94.14
56330;BME280;42236;48.058;10.632;2024-01-10T10:30:26;95385.25;;;-3.21;92.56
56330;BME280;42236;48.058;10.632;2024-01-10T10:33:11;95378.34;;;-3.22;93.46
56330;BME280;42236;48.058;10.632;2024-01-10T10:35:57;95379.91;;;-3.38;90.65
56330;BME280;42236;48.058;10.632;2024-01-10T10:38:43;95378.03;;;-3.66;90.54
56330;BME280;42236;48.058;10.632;2024-01-10T10:41:31;95383.31;;;-3.66;91.91
56330;BME280;42236;48.058;10.632;2024-01-10T10:44:19;95385.56;;;-3.58;94.09
56330;BME280;42236;48.058;10.632;2024-01-10T10:47:09;95379.94;;;-3.50;91.53
56330;BME280;42236;48.058;10.632;2024-01-10T10:49:55;95389.31;;;-3.42;93.33
56330;BME280;42236;48.058;10.632;2024-01-10T10:52:45;95382.13;;;-3.47;91.79
56330;BME280;42236;48.058;10.632;2024-01-10T10:55:32;95380.97;;;-3.51;92.12
56330;BME280;42236;48.058;10.632;2024-01-10T10:58:19;95386.69;;;-3.42;92.80
56330;BME280;42236;48.058;10.632;2024-01-10T11:01:07;95380.91;;;-3.27;92.81
56330;BME280;42236;48.058;10.632;2024-01-10T11:03:53;95382.94;;;-3.17;91.94
56330;BME280;42236;48.058;10.632;2024-01-10T11:06:39;95378.88;;;-3.08;93.03
56330;BME280;42236;48.058;10.632;2024-01-10T11:09:25;95376.56;;;-3.05;91.24
56330;BME280;42236;48.058;10.632;2024-01-10T11:12:27;95375.06;;;-3.01;92.63
56330;BME280;42236;48.058;10.632;2024-01-10T11:15:59;95380.34;;;-3.01;90.85
56330;BME280;42236;48.058;10.632;2024-01-10T11:19:06;95379.41;;;-2.94;91.21
56330;BME280;42236;48.058;10.632;2024-01-10T11:25:12;95377.31;;;-3.09;91.11
56330;BME280;42236;48.058;10.632;2024-01-10T11:28:02;95378.72;;;-3.18;88.99
56330;BME280;42236;48.058;10.632;2024-01-10T11:30:50;95381.25;;;-3.24;90.55
56330;BME280;42236;48.058;10.632;2024-01-10T11:33:39;95378.63;;;-3.24;90.09
56330;BME280;42236;48.058;10.632;2024-01-10T11:36:27;95382.66;;;-3.04;91.24
56330;BME280;42236;48.058;10.632;2024-01-10T11:39:12;95379.63;;;-2.96;89.51
56330;BME280;42236;48.058;10.632;2024-01-10T11:41:59;95380.03;;;-3.04;89.58
56330;BME280;42236;48.058;10.632;2024-01-10T11:44:47;95388.16;;;-3.06;89.18
56330;BME280;42236;48.058;10.632;2024-01-10T11:47:40;95383.03;;;-3.12;89.39
56330;BME280;42236;48.058;10.632;2024-01-10T11:50:27;95389.00;;;-3.17;88.20
56330;BME280;42236;48.058;10.632;2024-01-10T11:53:15;95387.22;;;-3.28;88.76
56330;BME280;42236;48.058;10.632;2024-01-10T11:56:19;95389.97;;;-3.23;91.13
56330;BME280;42236;48.058;10.632;2024-01-10T11:59:09;95388.34;;;-3.24;89.04
56330;BME280;42236;48.058;10.632;2024-01-10T12:01:57;95382.97;;;-3.29;89.07
56330;BME280;42236;48.058;10.632;2024-01-10T12:04:43;95384.72;;;-3.35;91.13
56330;BME280;42236;48.058;10.632;2024-01-10T12:07:29;95383.88;;;-3.24;92.11
56330;BME280;42236;48.058;10.632;2024-01-10T12:10:14;95386.16;;;-3.15;91.07
56330;BME280;42236;48.058;10.632;2024-01-10T12:13:05;95383.03;;;-3.12;90.96
56330;BME280;42236;48.058;10.632;2024-01-10T12:15:50;95384.16;;;-3.08;91.26
56330;BME280;42236;48.058;10.632;2024-01-10T12:18:36;95385.06;;;-3.03;91.74
56330;BME280;42236;48.058;10.632;2024-01-10T12:21:22;95382.59;;;-2.92;91.33
56330;BME280;42236;48.058;10.632;2024-01-10T12:24:08;95380.19;;;-2.94;89.78
56330;BME280;42236;48.058;10.632;2024-01-10T12:26:55;95374.59;;;-2.97;90.35
56330;BME280;42236;48.058;10.632;2024-01-10T12:29:40;95379.19;;;-3.05;89.62
56330;BME280;42236;48.058;10.632;2024-01-10T12:32:26;95388.75;;;-3.04;90.86
56330;BME280;42236;48.058;10.632;2024-01-10T12:35:11;95384.13;;;-2.96;91.32
56330;BME280;42236;48.058;10.632;2024-01-10T12:37:57;95377.69;;;-3.01;90.11
56330;BME280;42236;48.058;10.632;2024-01-10T12:40:43;95378.75;;;-3.02;90.65
56330;BME280;42236;48.058;10.632;2024-01-10T12:43:29;95370.84;;;-3.02;89.23
56330;BME280;42236;48.058;10.632;2024-01-10T12:46:14;95371.69;;;-3.13;89.78
56330;BME280;42236;48.058;10.632;2024-01-10T12:49:02;95369.03;;;-3.13;90.90
56330;BME280;42236;48.058;10.632;2024-01-10T12:51:48;95372.81;;;-3.09;90.14
56330;BME280;42236;48.058;10.632;2024-01-10T12:54:34;95366.41;;;-3.13;90.98
56330;BME280;42236;48.058;10.632;2024-01-10T12:57:19;95374.69;;;-3.21;90.52
56330;BME280;42236;48.058;10.632;2024-01-10T13:00:05;95368.47;;;-3.15;91.81
56330;BME280;42236;48.058;10.632;2024-01-10T13:02:54;95378.75;;;-3.02;90.98
56330;BME280;42236;48.058;10.632;2024-01-10T13:05:39;95380.38;;;-3.12;89.70
56330;BME280;42236;48.058;10.632;2024-01-10T13:08:25;95374.22;;;-3.18;91.39
56330;BME280;42236;48.058;10.632;2024-01-10T13:11:12;95374.88;;;-3.11;91.33
56330;BME280;42236;48.058;10.632;2024-01-10T13:13:59;95379.38;;;-3.11;90.38
56330;BME280;42236;48.058;10.632;2024-01-10T13:16:46;95379.38;;;-3.11;91.07
56330;BME280;42236;48.058;10.632;2024-01-10T13:19:31;95379.16;;;-3.22;90.43
56330;BME280;42236;48.058;10.632;2024-01-10T13:22:17;95371.81;;;-3.19;91.94
56330;BME280;42236;48.058;10.632;2024-01-10T13:25:05;95372.91;;;-3.04;91.59
56330;BME280;42236;48.058;10.632;2024-01-10T13:27:51;95375.41;;;-2.97;91.23
56330;BME280;42236;48.058;10.632;2024-01-10T13:30:37;95369.97;;;-2.90;91.56
56330;BME280;42236;48.058;10.632;2024-01-10T13:33:23;95365.31;;;-2.83;91.39
56330;BME280;42236;48.058;10.632;2024-01-10T13:36:08;95371.75;;;-2.79;89.42
56330;BME280;42236;48.058;10.632;2024-01-10T13:38:54;95372.69;;;-2.85;90.50
56330;BME280;42236;48.058;10.632;2024-01-10T13:41:40;95362.59;;;-2.88;90.56
56330;BME280;42236;48.058;10.632;2024-01-10T13:44:25;95368.38;;;-2.91;90.57
56330;BME280;42236;48.058;10.632;2024-01-10T13:47:11;95363.88;;;-2.91;91.75
56330;BME280;42236;48.058;10.632;2024-01-10T13:49:57;95370.59;;;-2.83;91.73
56330;BME280;42236;48.058;10.632;2024-01-10T13:52:42;95366.06;;;-2.71;91.72
56330;BME280;42236;48.058;10.632;2024-01-10T13:55:28;95376.16;;;-2.68;91.38
56330;BME280;42236;48.058;10.632;2024-01-10T13:58:14;95368.47;;;-2.69;90.67
56330;BME280;42236;48.058;10.632;2024-01-10T14:01:00;95369.53;;;-2.70;90.81
56330;BME280;42236;48.058;10.632;2024-01-10T14:03:45;95369.19;;;-2.74;90.90
56330;BME280;42236;48.058;10.632;2024-01-10T14:06:31;95379.19;;;-2.76;90.81
56330;BME280;42236;48.058;10.632;2024-01-10T14:09:17;95373.97;;;-2.71;91.87
56330;BME280;42236;48.058;10.632;2024-01-10T14:12:03;95373.44;;;-2.73;90.86
56330;BME280;42236;48.058;10.632;2024-01-10T14:14:49;95372.69;;;-2.85;89.93
56330;BME280;42236;48.058;10.632;2024-01-10T14:17:36;95372.50;;;-2.95;90.83
56330;BME280;42236;48.058;10.632;2024-01-10T14:20:21;95374.13;;;-2.94;91.87
56330;BME280;42236;48.058;10.632;2024-01-10T14:23:07;95377.78;;;-2.95;91.62
56330;BME280;42236;48.058;10.632;2024-01-10T14:25:53;95374.13;;;-2.94;91.93
56330;BME280;42236;48.058;10.632;2024-01-10T14:28:38;95369.50;;;-2.87;92.21
56330;BME280;42236;48.058;10.632;2024-01-10T14:31:24;95380.38;;;-2.84;91.21
56330;BME280;42236;48.058;10.632;2024-01-10T14:34:10;95380.06;;;-2.87;91.37